createdAt,value
2023-04-29T00:00:09.616Z,4.50
2023-04-29T00:01:09.736Z,5.00
2023-04-29T00:02:09.772Z,4.70
2023-04-29T00:03:09.343Z,4.60
2023-04-29T00:04:09.958Z,4.90
2023-04-29T00:05:09.335Z,4.30
2023-04-29T00:06:09.984Z,4.80
2023-04-29T00:07:09.870Z,5.00
2023-04-29T00:08:09.915Z,5.10
2023-04-29T00:09:09.824Z,4.60
2023-04-29T00:10:09.932Z,4.60
2023-04-29T00:11:09.985Z,4.90
2023-04-29T00:12:10.098Z,4.80
2023-04-29T00:13:10.117Z,4.70
2023-04-29T00:14:10.040Z,5.00
2023-04-29T00:15:09.041Z,4.40
2023-04-29T00:16:09.915Z,5.00
2023-04-29T00:17:09.859Z,4.40
2023-04-29T00:18:09.761Z,5.00
2023-04-29T00:19:09.869Z,4.80
2023-04-29T00:20:09.820Z,5.10
2023-04-29T00:21:09.005Z,4.50
2023-04-29T00:22:09.862Z,5.70
2023-04-29T00:23:09.786Z,4.40
2023-04-29T00:24:09.032Z,4.60
2023-04-29T00:25:08.916Z,4.60
2023-04-29T00:26:09.721Z,3.90
2023-04-29T00:27:08.907Z,4.10
2023-04-29T00:28:09.832Z,3.80
2023-04-29T00:29:09.686Z,4.10
2023-04-29T00:30:08.854Z,3.80
2023-04-29T00:31:08.823Z,4.30
2023-04-29T00:32:08.803Z,4.10
2023-04-29T00:33:08.905Z,4.10
2023-04-29T00:34:08.887Z,3.70
2023-04-29T00:35:08.920Z,4.00
2023-04-29T00:36:08.963Z,4.10
2023-04-29T00:37:09.024Z,4.20
2023-04-29T00:38:09.056Z,4.40
2023-04-29T00:39:09.086Z,3.90
2023-04-29T00:40:09.101Z,4.10
2023-04-29T00:41:09.232Z,4.50
2023-04-29T00:42:09.188Z,4.10
2023-04-29T00:43:09.231Z,4.20
2023-04-29T00:44:08.891Z,4.40
2023-04-29T00:45:09.306Z,3.80
2023-04-29T00:46:09.355Z,4.60
2023-04-29T00:47:09.391Z,4.50
2023-04-29T00:48:09.462Z,3.90
2023-04-29T00:49:09.361Z,4.40
2023-04-29T00:50:09.195Z,4.20
2023-04-29T00:51:08.648Z,4.50
2023-04-29T00:52:09.271Z,4.40
2023-04-29T00:53:09.429Z,4.80
2023-04-29T00:54:08.586Z,4.70
2023-04-29T00:55:09.082Z,4.70
2023-04-29T00:56:09.435Z,4.10
2023-04-29T00:57:08.837Z,4.10
2023-04-29T00:58:08.456Z,4.70
2023-04-29T00:59:09.511Z,4.30
2023-04-29T01:00:09.266Z,4.70
2023-04-29T01:01:09.584Z,5.10
2023-04-29T01:02:09.484Z,4.90
2023-04-29T01:03:09.492Z,4.60
2023-04-29T01:04:09.296Z,4.30
2023-04-29T01:05:09.306Z,4.60
2023-04-29T01:06:09.230Z,5.10
2023-04-29T01:07:09.107Z,4.30
2023-04-29T01:08:09.272Z,4.90
2023-04-29T01:09:09.176Z,4.60
2023-04-29T01:10:08.273Z,5.20
2023-04-29T01:11:08.377Z,5.30
2023-04-29T01:12:08.353Z,4.90
2023-04-29T01:13:08.393Z,5.40
2023-04-29T01:14:08.428Z,5.20
2023-04-29T01:15:08.544Z,5.50
2023-04-29T01:16:08.597Z,5.40
2023-04-29T01:17:08.556Z,5.00
2023-04-29T01:18:08.845Z,4.80
2023-04-29T01:19:08.618Z,5.10
2023-04-29T01:20:08.665Z,5.80
2023-04-29T01:21:08.709Z,5.70
2023-04-29T01:22:08.746Z,5.30
2023-04-29T01:23:08.122Z,4.80
2023-04-29T01:24:08.824Z,5.60
2023-04-29T01:25:08.877Z,5.80
2023-04-29T01:26:08.107Z,5.50
2023-04-29T01:27:09.027Z,5.00
2023-04-29T01:28:08.882Z,5.10
2023-04-29T01:29:08.788Z,5.60
2023-04-29T01:30:08.953Z,5.00
2023-04-29T01:31:08.597Z,6.10
2023-04-29T01:32:08.030Z,6.00
2023-04-29T01:33:08.948Z,5.80
2023-04-29T01:34:08.528Z,5.40
2023-04-29T01:35:08.718Z,5.50
2023-04-29T01:36:08.137Z,5.40
2023-04-29T01:37:08.790Z,7.00
2023-04-29T01:38:08.687Z,5.60
2023-04-29T01:39:08.897Z,5.20
2023-04-29T01:40:08.004Z,6.00
2023-04-29T01:41:08.666Z,5.30
2023-04-29T01:42:07.858Z,5.10
2023-04-29T01:43:44.106Z,5.10
2023-04-29T01:44:07.934Z,4.90
2023-04-29T01:45:08.552Z,5.20
2023-04-29T01:46:08.726Z,5.90
2023-04-29T01:47:08.610Z,5.50
2023-04-29T01:48:07.827Z,5.20
2023-04-29T01:49:07.797Z,6.00
2023-04-29T01:50:07.849Z,6.10
2023-04-29T01:51:07.885Z,5.70
2023-04-29T01:52:07.916Z,5.40
2023-04-29T01:53:07.961Z,4.90
2023-04-29T01:54:07.701Z,5.30
2023-04-29T01:55:08.114Z,5.60
2023-04-29T01:56:08.086Z,5.40
2023-04-29T01:57:07.668Z,5.50
2023-04-29T01:58:08.538Z,6.20
2023-04-29T01:59:08.205Z,6.00
2023-04-29T02:00:07.737Z,5.70
2023-04-29T02:01:07.844Z,6.50
2023-04-29T02:02:08.343Z,5.50
2023-04-29T02:03:07.707Z,6.50
2023-04-29T02:04:08.490Z,6.30
2023-04-29T02:05:08.411Z,6.40
2023-04-29T02:06:07.643Z,6.30
2023-04-29T02:07:07.533Z,7.30
2023-04-29T02:08:07.518Z,6.60
2023-04-29T02:09:07.503Z,6.10
2023-04-29T02:10:07.493Z,6.30
2023-04-29T02:11:07.540Z,6.10
2023-04-29T02:12:07.512Z,6.20
2023-04-29T02:13:07.587Z,5.80
2023-04-29T02:14:07.485Z,6.30
2023-04-29T02:15:07.501Z,6.40
2023-04-29T02:16:07.491Z,5.70
2023-04-29T02:17:07.478Z,5.90
2023-04-29T02:18:07.515Z,6.10
2023-04-29T02:19:07.371Z,6.10
2023-04-29T02:20:07.511Z,5.60
2023-04-29T02:21:07.518Z,5.30
2023-04-29T02:22:07.483Z,5.90
2023-04-29T02:23:07.507Z,6.20
2023-04-29T02:24:07.404Z,5.10
2023-04-29T02:25:07.309Z,5.70
2023-04-29T02:26:07.322Z,5.80
2023-04-29T02:27:07.308Z,5.70
2023-04-29T02:28:07.386Z,5.60
2023-04-29T02:29:08.119Z,5.80
2023-04-29T02:30:07.412Z,5.90
2023-04-29T02:31:07.460Z,6.00
2023-04-29T02:32:07.522Z,5.90
2023-04-29T02:33:08.519Z,5.70
2023-04-29T02:34:07.496Z,5.40
2023-04-29T02:35:07.494Z,5.70
2023-04-29T02:36:07.499Z,5.50
2023-04-29T02:37:07.153Z,5.80
2023-04-29T02:38:07.489Z,6.40
2023-04-29T02:39:07.496Z,5.70
2023-04-29T02:40:07.135Z,5.50
2023-04-29T02:41:07.513Z,5.70
2023-04-29T02:42:07.486Z,6.00
2023-04-29T02:43:07.097Z,6.90
2023-04-29T02:44:07.589Z,6.40
2023-04-29T02:45:07.496Z,6.60
2023-04-29T02:46:07.517Z,7.00
2023-04-29T02:47:07.499Z,6.20
2023-04-29T02:48:07.574Z,5.70
2023-04-29T02:49:07.492Z,6.60
2023-04-29T02:50:07.499Z,6.00
2023-04-29T02:51:07.492Z,7.00
2023-04-29T02:52:07.518Z,6.90
2023-04-29T02:53:06.960Z,7.60
2023-04-29T02:54:07.524Z,7.20
2023-04-29T02:55:07.492Z,6.60
2023-04-29T02:56:07.611Z,6.80
2023-04-29T02:57:07.121Z,6.90
2023-04-29T02:58:06.935Z,6.80
2023-04-29T02:59:06.891Z,5.90
2023-04-29T03:00:07.511Z,7.70
2023-04-29T03:01:06.990Z,7.80
2023-04-29T03:02:07.439Z,6.80
2023-04-29T03:03:07.651Z,7.10
2023-04-29T03:04:07.126Z,7.60
2023-04-29T03:05:06.754Z,6.70
2023-04-29T03:06:06.792Z,8.30
2023-04-29T03:07:06.832Z,8.80
2023-04-29T03:08:06.898Z,7.50
2023-04-29T03:09:06.952Z,7.80
2023-04-29T03:10:06.840Z,8.00
2023-04-29T03:11:06.718Z,8.10
2023-04-29T03:12:07.049Z,7.40
2023-04-29T03:13:07.064Z,7.50
2023-04-29T03:14:07.102Z,7.70
2023-04-29T03:15:07.609Z,8.50
2023-04-29T03:16:07.322Z,7.40
2023-04-29T03:17:07.260Z,8.30
2023-04-29T03:18:06.938Z,7.70
2023-04-29T03:19:06.917Z,6.90
2023-04-29T03:20:07.327Z,7.80
2023-04-29T03:21:06.844Z,6.80
2023-04-29T03:22:07.400Z,7.40
2023-04-29T03:23:07.018Z,7.60
2023-04-29T03:24:06.754Z,7.20
2023-04-29T03:25:07.002Z,6.40
2023-04-29T03:26:07.099Z,6.50
2023-04-29T03:27:07.639Z,7.20
2023-04-29T03:28:07.357Z,7.30
2023-04-29T03:29:07.261Z,7.00
2023-04-29T03:30:06.449Z,6.70
2023-04-29T03:31:07.374Z,7.10
2023-04-29T03:32:06.828Z,7.10
2023-04-29T03:33:07.148Z,6.90
2023-04-29T03:34:06.314Z,6.80
2023-04-29T03:35:07.212Z,6.80
2023-04-29T03:36:07.086Z,6.70
2023-04-29T03:37:06.287Z,7.00
2023-04-29T03:38:07.156Z,6.80
2023-04-29T03:39:07.066Z,7.30
2023-04-29T03:40:06.853Z,7.70
2023-04-29T03:41:07.135Z,6.60
2023-04-29T03:42:06.321Z,6.30
2023-04-29T03:43:07.153Z,7.40
2023-04-29T03:44:06.182Z,8.50
2023-04-29T03:45:06.162Z,6.80
2023-04-29T03:46:06.333Z,7.30
2023-04-29T03:47:06.157Z,7.20
2023-04-29T03:48:06.193Z,6.50
2023-04-29T03:49:06.250Z,6.20
2023-04-29T03:50:06.188Z,6.90
2023-04-29T03:51:06.145Z,5.60
2023-04-29T03:52:06.182Z,5.90
2023-04-29T03:53:06.209Z,5.60
2023-04-29T03:54:06.151Z,6.30
2023-04-29T03:55:06.155Z,5.90
2023-04-29T03:56:06.148Z,5.70
2023-04-29T03:57:06.144Z,6.60
2023-04-29T03:58:05.996Z,6.10
2023-04-29T03:59:06.138Z,6.40
2023-04-29T04:00:06.137Z,5.90
2023-04-29T04:01:07.010Z,6.60
2023-04-29T04:02:06.199Z,5.60
2023-04-29T04:03:06.317Z,6.50
2023-04-29T04:04:06.341Z,6.80
2023-04-29T04:05:06.266Z,6.30
2023-04-29T04:06:06.219Z,6.60
2023-04-29T04:07:06.142Z,6.10
2023-04-29T04:08:06.228Z,5.70
2023-04-29T04:09:05.871Z,4.80
2023-04-29T04:10:06.155Z,4.90
2023-04-29T04:11:06.135Z,5.20
2023-04-29T04:12:06.145Z,5.10
2023-04-29T04:13:06.144Z,5.40
2023-04-29T04:14:05.955Z,5.30
2023-04-29T04:15:05.930Z,4.90
2023-04-29T04:16:06.275Z,5.10
2023-04-29T04:17:05.756Z,4.90
2023-04-29T04:18:05.964Z,5.80
2023-04-29T04:19:06.239Z,5.50
2023-04-29T04:20:05.743Z,6.10
2023-04-29T04:21:06.368Z,5.40
2023-04-29T04:22:05.671Z,5.20
2023-04-29T04:23:05.685Z,5.60
2023-04-29T04:24:05.742Z,5.30
2023-04-29T04:25:05.786Z,5.70
2023-04-29T04:26:05.838Z,5.20
2023-04-29T04:27:05.842Z,5.90
2023-04-29T04:28:05.896Z,5.40
2023-04-29T04:29:10.368Z,4.80
2023-04-29T04:30:05.850Z,5.00
2023-04-29T04:31:05.638Z,5.30
2023-04-29T04:32:06.159Z,4.90
2023-04-29T04:33:05.584Z,4.70
2023-04-29T04:34:06.110Z,4.20
2023-04-29T04:35:05.728Z,4.20
2023-04-29T04:36:06.145Z,4.50
2023-04-29T04:37:06.175Z,3.90
2023-04-29T04:38:06.162Z,4.40
2023-04-29T04:39:05.630Z,4.50
2023-04-29T04:40:06.200Z,4.00
2023-04-29T04:41:05.480Z,4.20
2023-04-29T04:42:05.429Z,4.40
2023-04-29T04:43:06.160Z,4.30
2023-04-29T04:44:05.597Z,4.20
2023-04-29T04:45:05.384Z,3.80
2023-04-29T04:46:06.345Z,4.30
2023-04-29T04:47:06.168Z,3.00
2023-04-29T04:48:05.859Z,3.30
2023-04-29T04:49:05.852Z,3.10
2023-04-29T04:50:06.145Z,3.90
2023-04-29T04:51:05.573Z,3.30
2023-04-29T04:52:05.471Z,3.40
2023-04-29T04:53:06.105Z,3.20
2023-04-29T04:54:06.015Z,2.90
2023-04-29T04:55:05.358Z,3.10
2023-04-29T04:56:05.406Z,2.90
2023-04-29T04:57:05.997Z,2.50
2023-04-29T04:58:06.146Z,2.30
2023-04-29T04:59:06.234Z,2.30
2023-04-29T05:00:05.978Z,3.10
2023-04-29T05:01:06.180Z,2.80
2023-04-29T05:02:05.225Z,2.60
2023-04-29T05:03:05.319Z,2.30
2023-04-29T05:04:05.477Z,2.40
2023-04-29T05:05:05.303Z,2.60
2023-04-29T05:06:05.116Z,2.70
2023-04-29T05:07:05.095Z,2.50
2023-04-29T05:08:05.428Z,3.00
2023-04-29T05:09:05.287Z,2.90
2023-04-29T05:10:05.482Z,2.40
2023-04-29T05:11:05.544Z,2.10
2023-04-29T05:12:05.437Z,2.30
2023-04-29T05:13:05.653Z,2.50
2023-04-29T05:14:05.661Z,2.60
2023-04-29T05:15:05.049Z,2.30
2023-04-29T05:16:06.628Z,2.10
2023-04-29T05:17:05.807Z,2.40
2023-04-29T05:18:05.988Z,2.40
2023-04-29T05:19:04.937Z,2.70
2023-04-29T05:20:04.945Z,2.10
2023-04-29T05:21:04.981Z,2.10
2023-04-29T05:22:05.439Z,2.30
2023-04-29T05:23:05.162Z,2.20
2023-04-29T05:24:04.864Z,2.20
2023-04-29T05:25:04.934Z,2.20
2023-04-29T05:26:05.500Z,2.00
2023-04-29T05:27:05.661Z,2.10
2023-04-29T05:28:06.003Z,1.90
2023-04-29T05:29:05.729Z,2.10
2023-04-29T05:30:04.936Z,2.10
2023-04-29T05:31:05.562Z,2.20
2023-04-29T05:32:05.439Z,1.90
2023-04-29T05:33:05.622Z,2.00
2023-04-29T05:34:05.492Z,2.10
2023-04-29T05:35:07.203Z,1.70
2023-04-29T05:36:05.592Z,2.00
2023-04-29T05:37:05.523Z,2.20
2023-04-29T05:38:04.856Z,2.00
2023-04-29T05:39:06.146Z,2.10
2023-04-29T05:40:04.702Z,1.80
2023-04-29T05:41:04.711Z,1.80
2023-04-29T05:42:04.754Z,1.80
2023-04-29T05:43:04.793Z,1.50
2023-04-29T05:44:04.841Z,1.60
2023-04-29T05:45:04.885Z,2.00
2023-04-29T05:46:04.683Z,1.50
2023-04-29T05:47:04.962Z,1.70
2023-04-29T05:48:05.029Z,1.50
2023-04-29T05:49:05.119Z,1.90
2023-04-29T05:50:05.076Z,1.50
2023-04-29T05:51:05.099Z,1.80
2023-04-29T05:52:04.832Z,1.50
2023-04-29T05:53:05.181Z,1.70
2023-04-29T05:54:05.055Z,1.60
2023-04-29T05:55:05.373Z,1.90
2023-04-29T05:56:05.179Z,1.50
2023-04-29T05:57:05.339Z,1.70
2023-04-29T05:58:04.852Z,1.80
2023-04-29T05:59:05.414Z,1.70
2023-04-29T06:00:05.313Z,1.80
2023-04-29T06:01:05.218Z,2.00
2023-04-29T06:02:04.378Z,1.90
2023-04-29T06:03:05.015Z,2.50
2023-04-29T06:04:04.704Z,2.20
2023-04-29T06:05:04.804Z,2.60
2023-04-29T06:06:04.971Z,2.10
2023-04-29T06:07:04.290Z,2.50
2023-04-29T06:08:04.329Z,2.70
2023-04-29T06:09:08.454Z,3.10
2023-04-29T06:10:05.888Z,3.30
2023-04-29T06:11:05.010Z,3.70
2023-04-29T06:12:04.252Z,4.50
2023-04-29T06:13:04.349Z,4.40
2023-04-29T06:14:04.290Z,4.50
2023-04-29T06:15:04.386Z,5.40
2023-04-29T06:16:04.365Z,4.20
2023-04-29T06:17:04.362Z,4.90
2023-04-29T06:18:04.551Z,5.10
2023-04-29T06:19:04.326Z,5.00
2023-04-29T06:20:04.173Z,4.50
2023-04-29T06:21:04.202Z,5.10
2023-04-29T06:22:04.175Z,5.10
2023-04-29T06:23:04.139Z,5.50
2023-04-29T06:24:04.081Z,5.20
2023-04-29T06:25:04.068Z,5.40
2023-04-29T06:26:04.083Z,5.70
2023-04-29T06:27:04.101Z,6.10
2023-04-29T06:28:04.045Z,5.70
2023-04-29T06:29:04.028Z,6.90
2023-04-29T06:30:04.093Z,7.00
2023-04-29T06:31:03.988Z,6.90
2023-04-29T06:32:04.135Z,6.50
2023-04-29T06:33:04.193Z,5.60
2023-04-29T06:34:04.101Z,5.90
2023-04-29T06:35:04.192Z,5.40
2023-04-29T06:36:04.204Z,5.50
2023-04-29T06:37:04.131Z,6.10
2023-04-29T06:38:03.994Z,5.90
2023-04-29T06:39:03.882Z,5.40
2023-04-29T06:40:04.140Z,5.50
2023-04-29T06:41:03.895Z,6.30
2023-04-29T06:42:03.844Z,5.90
2023-04-29T06:43:04.116Z,5.60
2023-04-29T06:44:03.827Z,5.20
2023-04-29T06:45:03.785Z,5.00
2023-04-29T06:46:03.776Z,5.90
2023-04-29T06:47:03.908Z,6.10
2023-04-29T06:48:03.783Z,5.80
2023-04-29T06:49:03.962Z,5.60
2023-04-29T06:50:04.567Z,5.80
2023-04-29T06:51:04.106Z,6.40
2023-04-29T06:52:03.951Z,5.60
2023-04-29T06:53:04.638Z,5.40
2023-04-29T06:54:04.139Z,6.50
2023-04-29T06:55:03.837Z,6.50
2023-04-29T06:56:04.110Z,5.60
2023-04-29T06:57:03.676Z,5.90
2023-04-29T06:58:03.619Z,5.80
2023-04-29T06:59:03.599Z,5.60
2023-04-29T07:00:03.813Z,6.60
2023-04-29T07:01:03.634Z,5.70
2023-04-29T07:02:03.576Z,5.30
2023-04-29T07:03:03.934Z,5.00
2023-04-29T07:04:03.640Z,6.60
2023-04-29T07:05:03.628Z,5.60
2023-04-29T07:06:04.387Z,5.90
2023-04-29T07:07:03.683Z,6.00
2023-04-29T07:08:03.675Z,5.70
2023-04-29T07:09:03.547Z,6.20
2023-04-29T07:10:03.461Z,5.50
2023-04-29T07:11:03.491Z,5.50
2023-04-29T07:12:03.665Z,6.10
2023-04-29T07:13:03.432Z,5.70
2023-04-29T07:14:03.434Z,5.90
2023-04-29T07:15:03.759Z,6.20
2023-04-29T07:16:03.845Z,5.80
2023-04-29T07:17:03.425Z,6.70
2023-04-29T07:18:03.533Z,6.60
2023-04-29T07:19:03.386Z,6.80
2023-04-29T07:20:03.751Z,6.10
2023-04-29T07:21:03.788Z,6.40
2023-04-29T07:22:03.507Z,6.00
2023-04-29T07:23:03.583Z,6.20
2023-04-29T07:24:03.774Z,6.50
2023-04-29T07:25:03.766Z,6.70
2023-04-29T07:26:03.269Z,6.50
2023-04-29T07:27:03.894Z,6.70
2023-04-29T07:28:03.233Z,5.80
2023-04-29T07:29:03.302Z,6.80
2023-04-29T07:30:03.327Z,6.20
2023-04-29T07:31:03.293Z,6.20
2023-04-29T07:32:03.185Z,6.40
2023-04-29T07:33:03.856Z,6.40
2023-04-29T07:34:03.614Z,6.60
2023-04-29T07:35:03.857Z,8.30
2023-04-29T07:36:03.887Z,6.50
2023-04-29T07:37:03.146Z,6.60
2023-04-29T07:38:03.314Z,7.30
2023-04-29T07:39:04.061Z,7.00
2023-04-29T07:40:03.377Z,6.20
2023-04-29T07:41:03.118Z,6.40
2023-04-29T07:42:03.049Z,7.30
2023-04-29T07:43:03.032Z,7.20
2023-04-29T07:44:03.057Z,8.60
2023-04-29T07:45:03.036Z,8.20
2023-04-29T07:46:03.542Z,7.70
2023-04-29T07:47:03.037Z,7.00
2023-04-29T07:48:03.063Z,8.00
2023-04-29T07:49:03.066Z,7.30
2023-04-29T07:50:02.925Z,7.80
2023-04-29T07:51:02.973Z,7.40
2023-04-29T07:52:03.497Z,8.10
2023-04-29T07:53:03.669Z,7.40
2023-04-29T07:54:03.796Z,8.00
2023-04-29T07:55:03.732Z,7.80
2023-04-29T07:56:02.845Z,8.40
2023-04-29T07:57:02.864Z,7.70
2023-04-29T07:58:02.813Z,7.10
2023-04-29T07:59:02.807Z,8.00
2023-04-29T08:00:03.801Z,8.00
2023-04-29T08:01:02.770Z,7.90
2023-04-29T08:02:02.991Z,7.80
2023-04-29T08:03:02.914Z,8.00
2023-04-29T08:04:03.226Z,8.10
2023-04-29T08:05:04.127Z,8.90
2023-04-29T08:06:02.752Z,8.40
2023-04-29T08:07:03.933Z,7.70
2023-04-29T08:08:03.526Z,8.10
2023-04-29T08:09:03.327Z,7.80
2023-04-29T08:10:03.597Z,8.90
2023-04-29T08:11:03.534Z,8.30
2023-04-29T08:12:02.682Z,8.80
2023-04-29T08:13:03.572Z,9.00
2023-04-29T08:14:03.455Z,9.70
2023-04-29T08:15:02.623Z,9.50
2023-04-29T08:16:02.666Z,9.40
2023-04-29T08:17:02.667Z,8.80
2023-04-29T08:18:02.706Z,10.20
2023-04-29T08:19:02.767Z,8.50
2023-04-29T08:20:02.588Z,8.80
2023-04-29T08:21:02.545Z,9.90
2023-04-29T08:22:02.866Z,9.00
2023-04-29T08:23:02.959Z,8.60
2023-04-29T08:24:02.965Z,9.10
2023-04-29T08:25:02.985Z,8.30
2023-04-29T08:26:02.464Z,9.00
2023-04-29T08:27:02.484Z,8.90
2023-04-29T08:28:02.934Z,8.70
2023-04-29T08:29:02.425Z,7.90
2023-04-29T08:30:03.229Z,8.30
2023-04-29T08:31:02.386Z,8.40
2023-04-29T08:32:02.542Z,8.30
2023-04-29T08:33:03.217Z,8.60
2023-04-29T08:34:03.121Z,7.70
2023-04-29T08:35:02.324Z,9.10
2023-04-29T08:36:02.348Z,9.00
2023-04-29T08:37:02.348Z,8.50
2023-04-29T08:38:03.155Z,7.80
2023-04-29T08:39:02.360Z,8.30
2023-04-29T08:40:02.351Z,7.10
2023-04-29T08:41:03.154Z,7.30
2023-04-29T08:42:02.273Z,7.60
2023-04-29T08:43:02.228Z,8.30
2023-04-29T08:44:03.173Z,8.20
2023-04-29T08:45:02.240Z,7.50
2023-04-29T08:46:02.449Z,7.80
2023-04-29T08:47:02.415Z,8.20
2023-04-29T08:48:02.321Z,8.10
2023-04-29T08:49:02.404Z,8.40
2023-04-29T08:50:02.309Z,7.50
2023-04-29T08:51:02.454Z,7.10
2023-04-29T08:52:02.138Z,6.90
2023-04-29T08:53:02.447Z,7.90
2023-04-29T08:54:02.724Z,7.30
2023-04-29T08:55:02.101Z,7.90
2023-04-29T08:56:02.145Z,7.60
2023-04-29T08:57:02.301Z,7.00
2023-04-29T08:58:02.236Z,7.00
2023-04-29T08:59:02.024Z,7.10
2023-04-29T09:00:02.601Z,7.30
2023-04-29T09:01:02.392Z,8.10
2023-04-29T09:02:02.005Z,7.50
2023-04-29T09:03:02.512Z,7.10
2023-04-29T09:04:02.218Z,7.70
2023-04-29T09:05:02.138Z,7.60
2023-04-29T09:06:02.567Z,8.40
2023-04-29T09:07:02.590Z,7.00
2023-04-29T09:08:01.909Z,7.30
2023-04-29T09:09:02.768Z,7.90
2023-04-29T09:10:01.945Z,8.40
2023-04-29T09:11:02.842Z,7.70
2023-04-29T09:12:02.934Z,7.70
2023-04-29T09:13:01.830Z,7.60
2023-04-29T09:14:02.340Z,8.20
2023-04-29T09:15:01.868Z,8.20
2023-04-29T09:16:02.031Z,7.20
2023-04-29T09:17:02.514Z,8.70
2023-04-29T09:18:01.923Z,8.30
2023-04-29T09:19:01.753Z,8.10
2023-04-29T09:20:01.912Z,8.70
2023-04-29T09:21:01.827Z,7.50
2023-04-29T09:22:02.566Z,7.60
2023-04-29T09:23:02.553Z,8.30
2023-04-29T09:24:02.276Z,8.20
2023-04-29T09:25:02.654Z,7.50
2023-04-29T09:26:02.015Z,8.10
2023-04-29T09:27:01.842Z,8.20
2023-04-29T09:28:02.492Z,8.50
2023-04-29T09:29:02.447Z,7.40
2023-04-29T09:30:02.016Z,7.90
2023-04-29T09:31:02.506Z,8.10
2023-04-29T09:32:02.611Z,8.20
2023-04-29T09:33:02.236Z,7.70
2023-04-29T09:34:02.272Z,7.90
2023-04-29T09:35:01.732Z,8.00
2023-04-29T09:36:02.577Z,7.80
2023-04-29T09:37:01.561Z,7.60
2023-04-29T09:38:01.788Z,7.20
2023-04-29T09:39:01.829Z,7.80
2023-04-29T09:40:01.512Z,8.50
2023-04-29T09:41:02.333Z,7.00
2023-04-29T09:42:02.008Z,7.80
2023-04-29T09:43:01.823Z,7.50
2023-04-29T09:44:01.915Z,7.10
2023-04-29T09:45:02.044Z,7.20
2023-04-29T09:46:01.824Z,7.40
2023-04-29T09:47:02.145Z,8.10
2023-04-29T09:48:02.449Z,7.20
2023-04-29T09:49:13.853Z,7.20
2023-04-29T09:50:03.712Z,7.20
2023-04-29T09:51:02.210Z,6.80
2023-04-29T09:52:02.247Z,7.20
2023-04-29T09:53:02.278Z,6.70
2023-04-29T09:54:02.209Z,7.60
2023-04-29T09:55:02.642Z,7.20
2023-04-29T09:56:02.185Z,6.90
2023-04-29T09:57:01.938Z,7.30
2023-04-29T09:58:02.202Z,7.90
2023-04-29T09:59:01.328Z,7.40
2023-04-29T10:00:01.424Z,6.70
2023-04-29T10:01:01.673Z,6.60
2023-04-29T10:02:01.397Z,7.00
2023-04-29T10:03:01.599Z,7.30
2023-04-29T10:04:01.808Z,7.30
2023-04-29T10:05:01.666Z,7.10
2023-04-29T10:06:01.506Z,7.60
2023-04-29T10:07:01.680Z,7.00
2023-04-29T10:08:01.940Z,7.00
2023-04-29T10:09:01.885Z,6.90
2023-04-29T10:10:02.036Z,8.10
2023-04-29T10:11:01.950Z,7.30
2023-04-29T10:12:01.148Z,5.80
2023-04-29T10:13:01.236Z,6.50
2023-04-29T10:14:01.114Z,6.40
2023-04-29T10:15:01.148Z,5.90
2023-04-29T10:16:01.266Z,5.90
2023-04-29T10:17:01.007Z,6.10
2023-04-29T10:18:01.273Z,6.20
2023-04-29T10:19:01.305Z,6.10
2023-04-29T10:20:01.311Z,6.20
2023-04-29T10:21:01.368Z,6.20
2023-04-29T10:22:01.116Z,6.20
2023-04-29T10:23:00.996Z,5.40
2023-04-29T10:24:01.025Z,5.30
2023-04-29T10:25:01.063Z,6.00
2023-04-29T10:26:01.767Z,5.80
2023-04-29T10:27:02.716Z,6.80
2023-04-29T10:28:01.007Z,5.60
2023-04-29T10:29:01.709Z,5.40
2023-04-29T10:30:00.988Z,6.30
2023-04-29T10:31:01.063Z,5.90
2023-04-29T10:32:00.930Z,5.10
2023-04-29T10:33:01.858Z,4.90
2023-04-29T10:34:01.022Z,4.90
2023-04-29T10:35:01.087Z,4.90
2023-04-29T10:36:01.188Z,4.80
2023-04-29T10:37:00.734Z,4.30
2023-04-29T10:38:00.819Z,5.40
2023-04-29T10:39:01.147Z,5.60
2023-04-29T10:40:00.873Z,5.20
2023-04-29T10:41:01.600Z,4.30
2023-04-29T10:42:01.278Z,4.40
2023-04-29T10:43:00.696Z,4.30
2023-04-29T10:44:03.621Z,5.30
2023-04-29T10:45:00.944Z,4.80
2023-04-29T10:46:01.338Z,4.20
2023-04-29T10:47:01.325Z,4.80
2023-04-29T10:48:01.461Z,4.50
2023-04-29T10:49:01.260Z,3.70
2023-04-29T10:50:01.368Z,4.70
2023-04-29T10:51:01.065Z,4.50
2023-04-29T10:52:01.423Z,4.50
2023-04-29T10:53:00.495Z,4.40
2023-04-29T10:54:02.312Z,4.70
2023-04-29T10:55:00.512Z,5.10
2023-04-29T10:56:00.661Z,5.40
2023-04-29T10:57:01.334Z,5.20
2023-04-29T10:58:00.787Z,4.90
2023-04-29T10:59:00.776Z,5.30
2023-04-29T11:00:00.796Z,4.80
2023-04-29T11:01:00.979Z,5.40
2023-04-29T11:02:00.761Z,5.10
2023-04-29T11:03:00.665Z,5.80
2023-04-29T11:04:01.069Z,5.50
2023-04-29T11:05:01.108Z,5.80
2023-04-29T11:06:01.044Z,5.90
2023-04-29T11:07:00.968Z,5.50
2023-04-29T11:08:00.330Z,5.60
2023-04-29T11:09:01.167Z,5.80
2023-04-29T11:10:00.327Z,5.40
2023-04-29T11:11:00.387Z,6.40
2023-04-29T11:12:00.733Z,5.70
2023-04-29T11:13:00.414Z,5.70
2023-04-29T11:14:00.511Z,5.90
2023-04-29T11:15:00.482Z,6.10
2023-04-29T11:16:00.469Z,5.20
2023-04-29T11:17:00.427Z,5.50
2023-04-29T11:18:00.627Z,6.20
2023-04-29T11:19:00.832Z,6.40
2023-04-29T11:20:00.992Z,5.80
2023-04-29T11:21:00.132Z,5.90
2023-04-29T11:22:01.043Z,6.00
2023-04-29T11:23:00.430Z,6.40
2023-04-29T11:24:00.790Z,5.50
2023-04-29T11:25:01.039Z,5.70
2023-04-29T11:26:00.890Z,5.80
2023-04-29T11:27:00.782Z,5.70
2023-04-29T11:28:00.588Z,6.40
2023-04-29T11:29:00.060Z,5.40
2023-04-29T11:30:00.769Z,6.40
2023-04-29T11:31:00.150Z,6.30
2023-04-29T11:32:00.249Z,5.40
2023-04-29T11:33:00.353Z,5.70
2023-04-29T11:34:00.145Z,5.80
2023-04-29T11:35:00.045Z,5.00
2023-04-29T11:36:00.210Z,5.50
2023-04-29T11:37:00.244Z,5.30
2023-04-29T11:38:00.270Z,5.70
2023-04-29T11:39:00.363Z,5.40
2023-04-29T11:40:00.377Z,5.00
2023-04-29T11:41:00.670Z,5.40
2023-04-29T11:42:00.530Z,5.50
2023-04-29T11:43:00.778Z,5.20
2023-04-29T11:43:59.950Z,5.50
2023-04-29T11:45:00.621Z,4.90
2023-04-29T11:46:00.714Z,5.50
2023-04-29T11:47:00.629Z,5.10
2023-04-29T11:48:00.603Z,5.50
2023-04-29T11:49:00.695Z,5.40
2023-04-29T11:50:04.041Z,4.50
2023-04-29T11:51:00.533Z,5.50
2023-04-29T11:52:00.792Z,5.50
2023-04-29T11:53:00.602Z,4.80
2023-04-29T11:54:00.503Z,4.90
2023-04-29T11:55:00.426Z,4.90
2023-04-29T11:56:00.623Z,5.20
2023-04-29T11:57:00.477Z,5.10
2023-04-29T11:58:01.113Z,5.30
2023-04-29T11:59:00.545Z,4.90
2023-04-29T11:59:59.968Z,6.00
2023-04-29T12:00:59.617Z,5.50
2023-04-29T12:02:00.557Z,5.80
2023-04-29T12:02:59.957Z,6.30
2023-04-29T12:04:00.617Z,5.70
2023-04-29T12:05:01.001Z,5.20
2023-04-29T12:06:00.452Z,5.50
2023-04-29T12:06:59.556Z,6.20
2023-04-29T12:08:00.471Z,5.80
2023-04-29T12:08:59.484Z,5.90
2023-04-29T12:09:59.536Z,5.90
2023-04-29T12:11:00.166Z,5.20
2023-04-29T12:11:59.641Z,6.00
2023-04-29T12:12:59.480Z,5.30
2023-04-29T12:13:59.795Z,5.70
2023-04-29T12:14:59.751Z,5.90
2023-04-29T12:15:59.797Z,6.00
2023-04-29T12:16:59.814Z,5.90
2023-04-29T12:17:59.896Z,5.80
2023-04-29T12:18:59.937Z,5.70
2023-04-29T12:19:59.571Z,5.50
2023-04-29T12:20:59.972Z,5.80
2023-04-29T12:21:59.367Z,5.10
2023-04-29T12:23:00.045Z,5.90
2023-04-29T12:24:00.138Z,5.80
2023-04-29T12:25:00.138Z,5.60
2023-04-29T12:25:59.514Z,5.30
2023-04-29T12:27:00.164Z,5.50
2023-04-29T12:28:00.053Z,5.70
2023-04-29T12:28:59.263Z,5.60
2023-04-29T12:29:59.421Z,5.70
2023-04-29T12:30:59.951Z,6.00
2023-04-29T12:32:00.242Z,5.80
2023-04-29T12:33:00.210Z,5.30
2023-04-29T12:33:59.990Z,5.10
2023-04-29T12:35:00.226Z,5.40
2023-04-29T12:36:00.231Z,5.30
2023-04-29T12:37:00.205Z,5.60
2023-04-29T12:37:59.881Z,5.30
2023-04-29T12:39:00.043Z,6.20
2023-04-29T12:39:59.921Z,6.10
2023-04-29T12:40:59.952Z,5.60
2023-04-29T12:42:00.202Z,6.00
2023-04-29T12:42:59.910Z,5.70
2023-04-29T12:44:00.890Z,6.00
2023-04-29T12:44:59.079Z,6.30
2023-04-29T12:45:59.862Z,6.30
2023-04-29T12:46:59.062Z,5.80
2023-04-29T12:47:59.182Z,6.20
2023-04-29T12:48:59.097Z,6.10
2023-04-29T12:49:59.210Z,6.00
2023-04-29T12:50:58.932Z,6.40
2023-04-29T12:51:59.225Z,6.10
2023-04-29T12:52:59.323Z,6.60
2023-04-29T12:53:58.881Z,5.60
2023-04-29T12:54:59.342Z,5.80
2023-04-29T12:55:59.395Z,5.90
2023-04-29T12:56:58.881Z,5.50
2023-04-29T12:58:01.081Z,5.60
2023-04-29T12:58:59.739Z,6.10
2023-04-29T12:59:59.573Z,5.30
2023-04-29T13:00:59.627Z,5.40
2023-04-29T13:01:59.608Z,6.00
2023-04-29T13:02:58.959Z,5.50
2023-04-29T13:03:59.802Z,5.60
2023-04-29T13:05:00.067Z,5.30
2023-04-29T13:05:59.477Z,5.50
2023-04-29T13:06:59.649Z,4.90
2023-04-29T13:07:59.541Z,5.00
2023-04-29T13:08:59.453Z,4.60
2023-04-29T13:09:59.619Z,4.40
2023-04-29T13:10:59.893Z,4.50
2023-04-29T13:11:59.778Z,4.40
2023-04-29T13:12:59.603Z,4.10
2023-04-29T13:13:58.978Z,4.80
2023-04-29T13:15:00.115Z,4.20
2023-04-29T13:15:59.582Z,4.40
2023-04-29T13:16:58.998Z,5.20
2023-04-29T13:17:59.411Z,4.50